createdAt,value
2022-08-02T00:00:40.988Z,96818.84
2022-08-02T00:03:09.058Z,96836.28
2022-08-02T00:05:37.344Z,96833.06
2022-08-02T00:08:06.075Z,96832.28
2022-08-02T00:10:35.614Z,96833.59
2022-08-02T00:13:03.692Z,96833.59
2022-08-02T00:15:31.883Z,96832.53
2022-08-02T00:17:59.933Z,96835.22
2022-08-02T00:20:27.987Z,96829.88
2022-08-02T00:22:56.011Z,96832.53
2022-08-02T00:25:24.163Z,96832.53
2022-08-02T00:27:53.534Z,96828.28
2022-08-02T00:30:21.610Z,96833.91
2022-08-02T00:32:49.700Z,96828.56
2022-08-02T00:35:19.568Z,96823.47
2022-08-02T00:37:47.718Z,96825.63
2022-08-02T00:40:15.970Z,96827.53
2022-08-02T00:42:44.142Z,96819.50
2022-08-02T00:45:13.617Z,96814.94
2022-08-02T00:47:41.613Z,96814.41
2022-08-02T00:50:10.959Z,96815.22
2022-08-02T00:52:39.015Z,96814.72
2022-08-02T00:55:08.309Z,96815.25
2022-08-02T00:57:37.055Z,96810.69
2022-08-02T01:00:07.270Z,96821.97
2022-08-02T01:02:36.735Z,96819.28
2022-08-02T01:05:05.084Z,96822.53
2022-08-02T01:07:33.650Z,96828.41
2022-08-02T01:10:01.863Z,96817.16
2022-08-02T01:12:29.983Z,96820.91
2022-08-02T01:15:05.512Z,96827.59
2022-08-02T01:17:44.347Z,96820.13
2022-08-02T01:20:37.323Z,96830.84
2022-08-02T01:23:26.287Z,96833.28
2022-08-02T01:26:19.603Z,96823.63
2022-08-02T01:28:59.069Z,96835.94
2022-08-02T01:31:31.983Z,96832.72
2022-08-02T01:34:07.713Z,96837.03
2022-08-02T01:36:41.478Z,96838.38
2022-08-02T01:39:27.582Z,96839.97
2022-08-02T01:42:02.330Z,96843.47
2022-08-02T01:44:35.992Z,96845.06
2022-08-02T01:47:08.559Z,96842.38
2022-08-02T01:49:38.659Z,96847.50
2022-08-02T01:52:22.847Z,96850.94
2022-08-02T01:54:57.663Z,96851.25
2022-08-02T01:57:27.603Z,96848.56
2022-08-02T02:00:00.252Z,96851.25
2022-08-02T02:02:32.400Z,96848.84
2022-08-02T02:05:02.387Z,96850.72
2022-08-02T02:07:33.018Z,96853.38
2022-08-02T02:10:03.717Z,96853.94
2022-08-02T02:12:35.875Z,96861.13
2022-08-02T02:15:07.525Z,96859.81
2022-08-02T02:17:50.622Z,96857.66
2022-08-02T02:20:25.986Z,96850.97
2022-08-02T02:22:54.335Z,96850.97
2022-08-02T02:25:28.177Z,96841.34
2022-08-02T02:28:11.412Z,96838.09
2022-08-02T02:30:48.443Z,96832.75
2022-08-02T02:33:20.044Z,96831.69
2022-08-02T02:35:52.658Z,96822.06
2022-08-02T02:38:22.842Z,96812.97
2022-08-02T02:40:51.611Z,96814.03
2022-08-02T02:43:21.189Z,96819.91
2022-08-02T02:45:51.480Z,96810.03
2022-08-02T02:48:19.703Z,96814.03
2022-08-02T02:50:49.485Z,96806.00
2022-08-02T02:53:20.537Z,96800.66
2022-08-02T02:56:02.073Z,96800.66
2022-08-02T02:58:31.495Z,96812.44
2022-08-02T03:01:19.202Z,96812.44
2022-08-02T03:03:47.717Z,96813.22
2022-08-02T03:06:16.222Z,96811.63
2022-08-02T03:08:44.890Z,96811.91
2022-08-02T03:11:15.767Z,96808.16
2022-08-02T03:13:44.340Z,96808.69
2022-08-02T03:16:14.326Z,96802.78
2022-08-02T03:18:44.518Z,96806.81
2022-08-02T03:21:14.295Z,96808.16
2022-08-02T03:23:44.109Z,96808.66
2022-08-02T03:26:12.410Z,96814.00
2022-08-02T03:28:40.814Z,96807.06
2022-08-02T03:31:09.051Z,96805.41
2022-08-02T03:33:39.989Z,96810.75
2022-08-02T03:36:12.535Z,96817.72
2022-08-02T03:38:42.567Z,96815.03
2022-08-02T03:41:13.708Z,96811.84
2022-08-02T03:43:43.750Z,96816.63
2022-08-02T03:46:13.908Z,96821.44
2022-08-02T03:48:43.534Z,96824.38
2022-08-02T03:51:12.579Z,96825.72
2022-08-02T03:53:41.557Z,96824.09
2022-08-02T03:56:11.709Z,96835.84
2022-08-02T03:58:40.011Z,96838.22
2022-08-02T04:01:08.441Z,96837.44
2022-08-02T04:03:36.751Z,96842.25
2022-08-02T04:06:06.422Z,96833.44
2022-08-02T04:08:37.948Z,96837.97
2022-08-02T04:11:24.778Z,96840.63
2022-08-02T04:13:56.914Z,96848.09
2022-08-02T04:16:34.248Z,96847.00
2022-08-02T04:19:04.758Z,96841.41
2022-08-02T04:21:50.469Z,96848.06
2022-08-02T04:24:26.208Z,96851.25
2022-08-02T04:26:57.855Z,96849.91
2022-08-02T04:29:36.099Z,96855.81
2022-08-02T04:32:05.866Z,96858.78
2022-08-02T04:34:34.078Z,96864.63
2022-08-02T04:37:03.938Z,96865.97
2022-08-02T04:39:31.986Z,96871.28
2022-08-02T04:42:00.209Z,96869.19
2022-08-02T04:44:28.467Z,96859.28
2022-08-02T04:46:56.763Z,96863.00
2022-08-02T04:49:24.869Z,96862.72
2022-08-02T04:51:52.980Z,96862.75
2022-08-02T04:54:22.694Z,96862.97
2022-08-02T04:56:50.718Z,96866.19
2022-08-02T04:59:18.792Z,96864.63
2022-08-02T05:01:47.006Z,96868.38
2022-08-02T05:04:15.253Z,96868.94
2022-08-02T05:06:43.299Z,96872.66
2022-08-02T05:09:11.388Z,96864.94
2022-08-02T05:11:40.765Z,96874.31
2022-08-02T05:14:08.814Z,96876.44
2022-08-02T05:16:36.859Z,96874.31
2022-08-02T05:19:04.996Z,96867.94
2022-08-02T05:21:33.209Z,96867.69
2022-08-02T05:24:01.267Z,96861.00
2022-08-02T05:26:29.333Z,96862.59
2022-08-02T05:28:58.751Z,96861.00
2022-08-02T05:31:27.075Z,96857.53
2022-08-02T05:33:58.576Z,96854.88
2022-08-02T05:36:27.399Z,96855.69
2022-08-02T05:38:59.550Z,96854.91
2022-08-02T05:41:30.555Z,96859.47
2022-08-02T05:43:59.972Z,96861.09
2022-08-02T05:46:28.380Z,96857.34
2022-08-02T05:48:56.560Z,96864.56
2022-08-02T05:51:30.215Z,96863.78
2022-08-02T05:54:11.939Z,96861.91
2022-08-02T05:56:47.413Z,96861.34
2022-08-02T05:59:36.502Z,96867.25
2022-08-02T06:02:16.417Z,96866.69
2022-08-02T06:05:02.573Z,96865.91
2022-08-02T06:07:35.783Z,96867.53
2022-08-02T06:10:05.431Z,96875.03
2022-08-02T06:12:37.143Z,96873.44
2022-08-02T06:15:07.974Z,96875.84
2022-08-02T06:17:41.716Z,96876.91
2022-08-02T06:20:15.107Z,96878.28
2022-08-02T06:22:45.994Z,96879.88
2022-08-02T06:25:51.029Z,96879.59
2022-08-02T06:28:11.513Z,96878.81
2022-08-02T06:30:42.849Z,96877.47
2022-08-02T06:33:11.088Z,96871.84
2022-08-02T06:35:49.410Z,96863.81
2022-08-02T06:38:23.699Z,96862.50
2022-08-02T06:41:02.097Z,96863.81
2022-08-02T06:43:41.748Z,96865.94
2022-08-02T06:46:38.044Z,96853.72
2022-08-02T06:49:05.204Z,96865.34
2022-08-02T06:51:34.142Z,96865.38
2022-08-02T06:54:06.783Z,96861.06
2022-08-02T06:56:34.888Z,96874.44
2022-08-02T06:59:05.982Z,96875.50
2022-08-02T07:01:38.752Z,96870.66
2022-08-02T07:04:07.604Z,96873.31
2022-08-02T07:06:35.669Z,96876.22
2022-08-02T07:09:21.173Z,96876.94
2022-08-02T07:11:49.957Z,96874.69
2022-08-02T07:14:18.030Z,96869.53
2022-08-02T07:16:47.426Z,96874.06
2022-08-02T07:19:15.452Z,96874.59
2022-08-02T07:21:57.042Z,96875.91
2022-08-02T07:24:27.583Z,96868.38
2022-08-02T07:27:10.490Z,96864.59
2022-08-02T07:29:44.862Z,96866.91
2022-08-02T07:32:17.046Z,96867.44
2022-08-02T07:34:50.257Z,96868.44
2022-08-02T07:37:35.555Z,96875.56
2022-08-02T07:40:14.126Z,96875.84
2022-08-02T07:42:44.592Z,96878.34
2022-08-02T07:45:17.275Z,96889.88
2022-08-02T07:47:47.913Z,96886.41
2022-08-02T07:50:43.611Z,96886.59
2022-08-02T07:53:11.641Z,96884.38
2022-08-02T07:55:40.780Z,96880.03
2022-08-02T07:58:10.971Z,96883.72
2022-08-02T08:00:42.042Z,96877.47
2022-08-02T08:03:11.477Z,96881.59
2022-08-02T08:05:39.691Z,96882.50
2022-08-02T08:08:08.834Z,96882.63
2022-08-02T08:10:41.447Z,96884.97
2022-08-02T08:13:09.480Z,96886.13
2022-08-02T08:15:38.578Z,96887.59
2022-08-02T08:18:06.780Z,96878.75
2022-08-02T08:20:36.394Z,96886.63
2022-08-02T08:23:07.136Z,96883.16
2022-08-02T08:25:39.688Z,96889.03
2022-08-02T08:28:10.084Z,96887.38
2022-08-02T08:30:38.262Z,96877.09
2022-08-02T08:33:06.344Z,96876.06
2022-08-02T08:35:36.201Z,96882.47
2022-08-02T08:38:07.741Z,96883.88
2022-08-02T08:40:37.013Z,96883.06
2022-08-02T08:43:06.107Z,96882.59
2022-08-02T08:45:34.370Z,96876.91
2022-08-02T08:48:13.744Z,96875.34
2022-08-02T08:50:51.740Z,96870.03
2022-08-02T08:53:22.543Z,96871.31
2022-08-02T08:56:05.460Z,96867.78
2022-08-02T08:58:33.535Z,96865.00
2022-08-02T09:01:01.805Z,96875.50
2022-08-02T09:03:34.096Z,96873.97
2022-08-02T09:06:29.048Z,96866.94
2022-08-02T09:08:57.086Z,96871.84
2022-08-02T09:11:27.128Z,96868.47
2022-08-02T09:13:58.733Z,96866.94
2022-08-02T09:16:32.825Z,96859.28
2022-08-02T09:19:02.011Z,96859.97
2022-08-02T09:21:38.930Z,96869.09
2022-08-02T09:24:18.728Z,96866.81
2022-08-02T09:26:47.966Z,96863.69
2022-08-02T09:29:16.695Z,96863.06
2022-08-02T09:31:50.045Z,96860.41
2022-08-02T09:34:19.936Z,96861.81
2022-08-02T09:36:54.640Z,96863.72
2022-08-02T09:39:26.351Z,96860.81
2022-08-02T09:42:08.271Z,96862.41
2022-08-02T09:44:36.627Z,96865.91
2022-08-02T09:47:16.483Z,96861.97
2022-08-02T09:49:52.318Z,96857.00
2022-08-02T09:52:37.288Z,96865.06
2022-08-02T09:55:13.241Z,96859.78
2022-08-02T09:57:41.577Z,96866.19
2022-08-02T10:00:16.185Z,96868.28
2022-08-02T10:03:07.277Z,96866.84
2022-08-02T10:05:55.751Z,96864.44
2022-08-02T10:08:26.895Z,96858.03
2022-08-02T10:11:01.626Z,96852.56
2022-08-02T10:13:31.708Z,96853.50
2022-08-02T10:16:00.021Z,96850.59
2022-08-02T10:18:38.685Z,96846.78
2022-08-02T10:21:12.694Z,96843.41
2022-08-02T10:23:46.569Z,96846.78
2022-08-02T10:26:20.413Z,96848.97
2022-08-02T10:28:50.783Z,96839.78
2022-08-02T10:31:25.077Z,96841.09
2022-08-02T10:33:55.506Z,96837.81
2022-08-02T10:36:27.053Z,96826.22
2022-08-02T10:38:58.645Z,96825.25
2022-08-02T10:41:44.752Z,96827.66
2022-08-02T10:44:28.678Z,96820.69
2022-08-02T10:47:24.015Z,96821.78
2022-08-02T10:49:54.707Z,96810.09
2022-08-02T10:52:23.895Z,96811.78
2022-08-02T10:54:57.637Z,96813.56
2022-08-02T10:57:27.800Z,96812.28
2022-08-02T10:59:58.763Z,96811.38
2022-08-02T11:02:38.590Z,96813.34
2022-08-02T11:05:15.086Z,96805.25
2022-08-02T11:07:47.710Z,96808.69
2022-08-02T11:10:40.098Z,96805.38
2022-08-02T11:13:19.591Z,96807.47
2022-08-02T11:16:02.109Z,96813.66
2022-08-02T11:19:06.727Z,96807.28
2022-08-02T11:21:36.902Z,96803.28
2022-08-02T11:24:30.522Z,96800.63
2022-08-02T11:27:02.354Z,96802.38
2022-08-02T11:29:42.156Z,96798.06
2022-08-02T11:32:17.782Z,96800.03
2022-08-02T11:34:49.207Z,96801.69
2022-08-02T11:37:29.604Z,96793.19
2022-08-02T11:39:57.681Z,96790.84
2022-08-02T11:42:34.401Z,96780.50
2022-08-02T11:45:03.000Z,96779.25
2022-08-02T11:47:31.982Z,96781.06
2022-08-02T11:50:06.997Z,96777.91
2022-08-02T11:52:36.694Z,96762.50
2022-08-02T11:55:07.159Z,96771.50
2022-08-02T11:58:01.713Z,96768.41
2022-08-02T12:00:30.339Z,96778.00
2022-08-02T12:02:59.137Z,96771.56
2022-08-02T12:06:04.734Z,96776.06
2022-08-02T12:08:18.966Z,96768.44
2022-08-02T12:10:50.062Z,96775.16
2022-08-02T12:13:19.587Z,96779.81
2022-08-02T12:15:48.265Z,96779.47
2022-08-02T12:18:36.401Z,96777.88
2022-08-02T12:21:05.674Z,96773.09
2022-08-02T12:23:33.717Z,96772.44
2022-08-02T12:26:05.161Z,96775.63
2022-08-02T12:28:39.021Z,96770.00
2022-08-02T12:31:10.575Z,96775.84
2022-08-02T12:33:48.519Z,96770.22
2022-08-02T12:36:17.675Z,96769.25
2022-08-02T12:38:52.826Z,96768.16
2022-08-02T12:41:30.936Z,96770.06
2022-08-02T12:44:02.045Z,96766.63
2022-08-02T12:46:31.474Z,96760.78
2022-08-02T12:49:18.652Z,96753.00
2022-08-02T12:51:54.553Z,96729.13
2022-08-02T12:54:32.571Z,96742.84
2022-08-02T12:57:12.427Z,96746.03
2022-08-02T12:59:45.072Z,96746.72
2022-08-02T13:02:16.662Z,96745.91
2022-08-02T13:04:49.681Z,96746.19
2022-08-02T13:07:19.374Z,96746.34
2022-08-02T13:09:48.415Z,96746.81
2022-08-02T13:12:17.528Z,96737.88
2022-08-02T13:14:47.255Z,96745.66
2022-08-02T13:17:15.316Z,96743.63
2022-08-02T13:19:43.408Z,96741.53
2022-08-02T13:22:11.788Z,96744.47
2022-08-02T13:24:56.609Z,96744.75
2022-08-02T13:27:27.142Z,96736.16
2022-08-02T13:29:58.205Z,96737.75
2022-08-02T13:32:27.880Z,96735.13
2022-08-02T13:34:56.854Z,96734.09
2022-08-02T13:37:25.473Z,96733.63
2022-08-02T13:40:19.103Z,96736.16
2022-08-02T13:42:42.749Z,96729.47
2022-08-02T13:45:15.257Z,96724.56
2022-08-02T13:48:05.117Z,96719.28
2022-08-02T13:50:33.702Z,96718.41
2022-08-02T13:53:01.760Z,96715.97
2022-08-02T13:55:29.939Z,96717.41
2022-08-02T13:57:58.390Z,96715.66
2022-08-02T14:00:35.142Z,96706.00
2022-08-02T14:03:06.713Z,96710.50
2022-08-02T14:05:47.005Z,96701.25
2022-08-02T14:08:18.360Z,96700.63
2022-08-02T14:10:47.983Z,96702.38
2022-08-02T14:13:16.147Z,96706.53
2022-08-02T14:15:45.562Z,96698.41
2022-08-02T14:18:15.219Z,96697.47
2022-08-02T14:20:44.028Z,96695.56
2022-08-02T14:23:12.404Z,96694.91
2022-08-02T14:25:40.666Z,96688.41
2022-08-02T14:28:08.967Z,96673.25
2022-08-02T14:30:37.218Z,96692.69
2022-08-02T14:33:06.682Z,96692.22
2022-08-02T14:35:34.938Z,96697.63
2022-08-02T14:38:03.046Z,96687.75
2022-08-02T14:40:32.164Z,96691.25
2022-08-02T14:43:01.337Z,96703.38
2022-08-02T14:45:40.128Z,96694.91
2022-08-02T14:48:12.870Z,96695.06
2022-08-02T14:50:41.070Z,96692.69
2022-08-02T14:53:12.020Z,96689.34
2022-08-02T14:55:43.172Z,96684.72
2022-08-02T14:58:12.240Z,96680.59
2022-08-02T15:00:41.871Z,96675.94
2022-08-02T15:03:14.443Z,96689.69
2022-08-02T15:05:42.619Z,96683.94
2022-08-02T15:08:10.981Z,96682.00
2022-08-02T15:10:39.085Z,96678.19
2022-08-02T15:13:07.538Z,96681.66
2022-08-02T15:15:43.166Z,96681.38
2022-08-02T15:18:14.611Z,96679.44
2022-08-02T15:20:50.772Z,96676.44
2022-08-02T15:23:37.560Z,96679.75
2022-08-02T15:26:07.638Z,96673.56
2022-08-02T15:28:35.959Z,96678.97
2022-08-02T15:31:04.106Z,96681.81
2022-08-02T15:33:33.580Z,96676.41
2022-08-02T15:36:01.678Z,96675.63
2022-08-02T15:38:29.722Z,96675.31
2022-08-02T15:40:57.794Z,96671.00
2022-08-02T15:43:26.012Z,96670.56
2022-08-02T15:45:54.280Z,96663.53
2022-08-02T15:48:22.551Z,96664.50
2022-08-02T15:50:51.988Z,96667.97
2022-08-02T15:53:20.053Z,96664.31
2022-08-02T15:56:04.022Z,96662.75
2022-08-02T15:58:34.783Z,96662.56
2022-08-02T16:01:12.604Z,96664.47
2022-08-02T16:03:40.713Z,96670.53
2022-08-02T16:06:10.135Z,96667.50
2022-08-02T16:08:38.184Z,96669.72
2022-08-02T16:11:12.731Z,96669.09
2022-08-02T16:13:54.633Z,96675.13
2022-08-02T16:16:24.279Z,96671.47
2022-08-02T16:18:52.408Z,96657.78
2022-08-02T16:21:24.521Z,96660.16
2022-08-02T16:23:59.535Z,96661.09
2022-08-02T16:26:32.459Z,96663.19
2022-08-02T16:29:01.719Z,96657.94
2022-08-02T16:31:29.889Z,96658.88
2022-08-02T16:33:58.356Z,96657.28
2022-08-02T16:36:28.367Z,96660.28
2022-08-02T16:38:56.873Z,96657.72
2022-08-02T16:41:45.575Z,96650.25
2022-08-02T16:44:13.314Z,96650.56
2022-08-02T16:46:41.533Z,96651.22
2022-08-02T16:50:05.297Z,96645.81
2022-08-02T16:52:03.359Z,96643.06
2022-08-02T16:54:31.709Z,96645.28
2022-08-02T16:56:59.821Z,96652.13
2022-08-02T16:59:27.871Z,96640.34
2022-08-02T17:02:15.118Z,96638.47
2022-08-02T17:04:47.407Z,96646.41
2022-08-02T17:08:07.808Z,96651.66
2022-08-02T17:10:09.032Z,96645.81
2022-08-02T17:12:39.002Z,96644.81
2022-08-02T17:16:07.539Z,96643.06
2022-08-02T17:17:58.217Z,96649.25
2022-08-02T17:20:26.257Z,96647.66
2022-08-02T17:22:56.225Z,96650.69
2022-08-02T17:25:28.994Z,96646.56
2022-08-02T17:28:00.203Z,96646.81
2022-08-02T17:30:29.462Z,96652.38
2022-08-02T17:32:59.323Z,96648.91
2022-08-02T17:35:39.965Z,96654.47
2022-08-02T17:38:17.847Z,96652.69
2022-08-02T17:40:54.445Z,96652.03
2022-08-02T17:43:22.621Z,96649.03
2022-08-02T17:46:00.374Z,96652.34
2022-08-02T17:48:55.130Z,96656.16
2022-08-02T17:52:14.949Z,96650.59
2022-08-02T17:54:14.065Z,96659.00
2022-08-02T17:56:42.955Z,96660.41
2022-08-02T17:59:20.489Z,96661.19
2022-08-02T18:01:52.985Z,96661.50
2022-08-02T18:04:26.938Z,96661.19
2022-08-02T18:06:59.509Z,96663.56
2022-08-02T18:09:34.562Z,96654.66
2022-08-02T18:12:02.866Z,96666.56
2022-08-02T18:14:30.976Z,96660.06
2022-08-02T18:16:59.001Z,96660.19
2022-08-02T18:19:33.114Z,96660.00
2022-08-02T18:22:11.717Z,96660.81
2022-08-02T18:24:41.570Z,96656.34
2022-08-02T18:27:13.924Z,96661.13
2022-08-02T18:29:42.125Z,96660.47
2022-08-02T18:32:11.402Z,96657.28
2022-08-02T18:34:40.769Z,96659.00
2022-08-02T18:37:15.825Z,96661.34
2022-08-02T18:39:51.402Z,96663.69
2022-08-02T18:42:19.992Z,96662.25
2022-08-02T18:44:48.231Z,96668.56
2022-08-02T18:47:16.414Z,96664.03
2022-08-02T18:50:08.292Z,96668.59
2022-08-02T18:52:37.909Z,96661.84
2022-08-02T18:55:17.502Z,96670.25
2022-08-02T18:58:16.902Z,96675.78
2022-08-02T19:00:51.590Z,96665.09
2022-08-02T19:03:20.531Z,96671.41
2022-08-02T19:05:51.505Z,96671.03
2022-08-02T19:08:25.534Z,96674.16
2022-08-02T19:11:02.602Z,96674.59
2022-08-02T19:13:31.218Z,96669.56
2022-08-02T19:15:59.379Z,96666.19
2022-08-02T19:18:30.180Z,96669.50
2022-08-02T19:21:05.186Z,96675.81
2022-08-02T19:23:34.141Z,96671.91
2022-08-02T19:26:03.994Z,96680.00
2022-08-02T19:28:32.111Z,96674.84
2022-08-02T19:31:02.355Z,96670.34
2022-08-02T19:34:05.829Z,96679.84
2022-08-02T19:36:19.141Z,96688.13
2022-08-02T19:38:49.068Z,96685.53
2022-08-02T19:41:18.844Z,96680.81
2022-08-02T19:44:23.314Z,96683.63
2022-08-02T19:46:38.410Z,96683.22
2022-08-02T19:49:16.482Z,96691.41
2022-08-02T19:51:54.932Z,96689.59
2022-08-02T19:54:35.757Z,96696.78
2022-08-02T19:57:19.360Z,96697.16
2022-08-02T19:59:47.845Z,96697.25
2022-08-02T20:02:18.543Z,96700.72
2022-08-02T20:04:49.853Z,96692.94
2022-08-02T20:07:48.222Z,96697.72
2022-08-02T20:10:11.186Z,96698.19
2022-08-02T20:12:41.806Z,96696.47
2022-08-02T20:15:14.891Z,96700.44
2022-08-02T20:17:47.292Z,96695.13
2022-08-02T20:20:16.831Z,96699.50
2022-08-02T20:23:32.044Z,96705.19
2022-08-02T20:25:54.071Z,96697.56
2022-08-02T20:28:23.830Z,96695.47
2022-08-02T20:30:51.946Z,96698.75
2022-08-02T20:33:23.783Z,96695.84
2022-08-02T20:35:53.349Z,96698.03
2022-08-02T20:38:24.773Z,96696.22
2022-08-02T20:40:56.461Z,96696.28
2022-08-02T20:43:31.140Z,96698.75
2022-08-02T20:46:00.393Z,96699.69
2022-08-02T20:48:29.997Z,96699.16
2022-08-02T20:50:58.394Z,96700.00
2022-08-02T20:53:29.966Z,96699.25
2022-08-02T20:55:58.697Z,96704.09
2022-08-02T20:58:29.362Z,96702.06
2022-08-02T21:01:00.038Z,96699.25
2022-08-02T21:03:32.297Z,96699.00
2022-08-02T21:06:08.812Z,96705.84
2022-08-02T21:08:38.421Z,96701.31
2022-08-02T21:11:09.208Z,96699.84
2022-08-02T21:13:47.018Z,96701.50
2022-08-02T21:16:30.455Z,96701.56
2022-08-02T21:19:00.027Z,96696.47
2022-08-02T21:21:28.620Z,96701.34
2022-08-02T21:23:58.785Z,96699.44
2022-08-02T21:26:31.269Z,96699.25
2022-08-02T21:29:03.816Z,96698.44
2022-08-02T21:31:35.871Z,96698.44
2022-08-02T21:34:21.704Z,96689.59
2022-08-02T21:36:51.055Z,96696.88
2022-08-02T21:39:20.524Z,96691.22
2022-08-02T21:41:49.371Z,96690.41
2022-08-02T21:44:21.686Z,96687.53
2022-08-02T21:46:51.859Z,96686.00
2022-08-02T21:49:20.663Z,96693.53
2022-08-02T21:51:50.366Z,96687.94
2022-08-02T21:54:21.012Z,96682.66
2022-08-02T21:56:51.971Z,96690.69
2022-08-02T21:59:26.099Z,96689.38
2022-08-02T22:01:56.703Z,96688.88
2022-08-02T22:04:26.423Z,96688.63
2022-08-02T22:06:55.238Z,96686.75
2022-08-02T22:09:43.542Z,96703.13
2022-08-02T22:12:16.461Z,96698.34
2022-08-02T22:14:53.790Z,96704.28
2022-08-02T22:17:51.192Z,96703.81
2022-08-02T22:20:14.468Z,96708.09
2022-08-02T22:22:43.689Z,96701.72
2022-08-02T22:25:26.827Z,96708.19
2022-08-02T22:28:35.256Z,96710.41
2022-08-02T22:30:51.156Z,96705.66
2022-08-02T22:33:42.438Z,96708.84
2022-08-02T22:36:16.035Z,96717.19
2022-08-02T22:38:44.854Z,96716.41
2022-08-02T22:41:13.701Z,96713.28
2022-08-02T22:43:42.037Z,96715.97
2022-08-02T22:46:15.217Z,96715.97
2022-08-02T22:48:43.853Z,96716.78
2022-08-02T22:51:12.669Z,96715.75
2022-08-02T22:53:41.725Z,96707.75
2022-08-02T22:56:11.281Z,96702.97
2022-08-02T23:01:29.785Z,96699.75
2022-08-02T23:03:57.942Z,96702.75
2022-08-02T23:06:26.122Z,96697.66
2022-08-02T23:08:54.210Z,96698.47
2022-08-02T23:11:23.157Z,96695.53
2022-08-02T23:13:51.300Z,96698.53
2022-08-02T23:16:38.747Z,96710.34
2022-08-02T23:19:26.070Z,96702.59
2022-08-02T23:22:01.930Z,96707.72
2022-08-02T23:24:33.229Z,96710.38
2022-08-02T23:27:01.933Z,96703.41
2022-08-02T23:29:30.204Z,96705.31
2022-08-02T23:31:59.021Z,96701.31
2022-08-02T23:34:28.676Z,96698.91
2022-08-02T23:36:56.710Z,96700.81
2022-08-02T23:39:25.135Z,96710.16
2022-08-02T23:41:55.228Z,96707.25
2022-08-02T23:44:24.695Z,96708.34
2022-08-02T23:46:53.879Z,96702.44
2022-08-02T23:49:23.736Z,96704.59
2022-08-02T23:52:00.924Z,96704.66
2022-08-02T23:54:29.931Z,96705.19
2022-08-02T23:56:57.979Z,96700.69
2022-08-02T23:59:26.129Z,96706.84
